createdAt,value
2018-09-29T00:00:41.643Z,9.30
2018-09-29T00:03:13.888Z,9.30
2018-09-29T00:05:46.089Z,9.20
2018-09-29T00:08:18.006Z,9.20
2018-09-29T00:10:51.009Z,9.20
2018-09-29T00:13:23.099Z,9.10
2018-09-29T00:15:55.312Z,9.00
2018-09-29T00:18:28.227Z,9.00
2018-09-29T00:21:00.492Z,8.90
2018-09-29T00:23:33.949Z,8.80
2018-09-29T00:26:06.263Z,8.80
2018-09-29T00:28:38.473Z,8.70
2018-09-29T00:33:43.676Z,8.70
2018-09-29T00:36:16.972Z,8.70
2018-09-29T00:38:50.823Z,8.60
2018-09-29T00:41:22.894Z,8.50
2018-09-29T00:43:54.350Z,8.50
2018-09-29T00:46:26.436Z,8.40
2018-09-29T00:48:58.524Z,8.40
2018-09-29T00:51:30.704Z,8.30
2018-09-29T00:54:02.771Z,8.20
2018-09-29T00:56:35.051Z,8.20
2018-09-29T00:59:07.296Z,8.20
2018-09-29T01:01:38.904Z,8.20
2018-09-29T01:04:10.677Z,8.10
2018-09-29T01:06:42.855Z,8.10
2018-09-29T01:09:14.930Z,8.10
2018-09-29T01:11:47.003Z,8.10
2018-09-29T01:14:18.952Z,8.00
2018-09-29T01:16:51.105Z,8.10
2018-09-29T01:19:22.779Z,8.10
2018-09-29T01:21:54.443Z,8.00
2018-09-29T01:24:26.452Z,8.00
2018-09-29T01:26:58.780Z,8.00
2018-09-29T01:29:30.447Z,7.90
2018-09-29T01:32:02.841Z,7.90
2018-09-29T01:34:35.062Z,8.00
2018-09-29T01:37:07.035Z,8.00
2018-09-29T01:39:38.971Z,8.00
2018-09-29T01:42:11.732Z,8.00
2018-09-29T01:44:43.738Z,8.10
2018-09-29T01:47:15.543Z,8.00
2018-09-29T01:49:47.475Z,8.10
2018-09-29T01:52:19.243Z,8.10
2018-09-29T01:54:51.188Z,8.10
2018-09-29T01:57:22.986Z,8.20
2018-09-29T01:59:55.012Z,8.30
2018-09-29T02:02:26.839Z,8.40
2018-09-29T02:04:59.405Z,8.40
2018-09-29T02:07:31.505Z,8.50
2018-09-29T02:10:03.717Z,8.50
2018-09-29T02:12:35.653Z,8.50
2018-09-29T02:15:07.352Z,8.50
2018-09-29T02:17:39.111Z,8.50
2018-09-29T02:20:12.139Z,8.60
2018-09-29T02:22:44.319Z,8.60
2018-09-29T02:25:16.695Z,8.60
2018-09-29T02:27:49.366Z,8.60
2018-09-29T02:30:22.065Z,8.60
2018-09-29T02:32:54.051Z,8.60
2018-09-29T02:35:26.604Z,8.70
2018-09-29T02:37:58.759Z,8.60
2018-09-29T02:40:30.972Z,8.70
2018-09-29T02:43:03.406Z,8.70
2018-09-29T02:45:36.056Z,8.70
2018-09-29T02:48:07.954Z,8.70
2018-09-29T02:50:39.967Z,8.70
2018-09-29T02:53:12.049Z,8.70
2018-09-29T02:55:43.875Z,8.70
2018-09-29T02:58:15.510Z,8.70
2018-09-29T03:00:47.384Z,8.70
2018-09-29T03:03:19.259Z,8.70
2018-09-29T03:05:51.195Z,8.80
2018-09-29T03:08:23.243Z,8.80
2018-09-29T03:10:55.024Z,8.80
2018-09-29T03:13:27.381Z,8.80
2018-09-29T03:15:59.209Z,8.80
2018-09-29T03:18:31.372Z,8.80
2018-09-29T03:21:03.630Z,8.80
2018-09-29T03:23:35.486Z,8.80
2018-09-29T03:26:07.771Z,8.80
2018-09-29T03:28:40.847Z,8.80
2018-09-29T03:31:13.024Z,8.80
2018-09-29T03:33:44.876Z,8.80
2018-09-29T03:36:16.819Z,8.80
2018-09-29T03:38:49.493Z,8.80
2018-09-29T03:41:21.596Z,8.80
2018-09-29T03:43:53.551Z,8.70
2018-09-29T03:46:25.827Z,8.70
2018-09-29T03:48:57.913Z,8.70
2018-09-29T03:51:30.510Z,8.80
2018-09-29T03:54:02.578Z,8.80
2018-09-29T03:56:34.762Z,8.70
2018-09-29T03:59:06.773Z,8.70
2018-09-29T04:01:38.727Z,8.70
2018-09-29T04:04:11.069Z,8.60
2018-09-29T04:06:43.077Z,8.60
2018-09-29T04:09:16.038Z,8.50
2018-09-29T04:11:47.773Z,8.40
2018-09-29T04:14:19.676Z,8.40
2018-09-29T04:16:51.487Z,8.30
2018-09-29T04:19:23.499Z,8.30
2018-09-29T04:21:55.494Z,8.30
2018-09-29T04:24:27.541Z,8.20
2018-09-29T04:26:59.544Z,8.30
2018-09-29T04:29:31.900Z,8.20
2018-09-29T04:32:03.827Z,8.20
2018-09-29T04:34:35.918Z,8.20
2018-09-29T04:37:08.240Z,8.10
2018-09-29T04:39:40.278Z,8.10
2018-09-29T04:42:12.235Z,8.20
2018-09-29T04:44:44.181Z,8.20
2018-09-29T04:47:16.451Z,8.20
2018-09-29T04:49:48.315Z,8.30
2018-09-29T04:52:20.113Z,8.30
2018-09-29T04:54:52.045Z,8.40
2018-09-29T04:57:24.450Z,8.50
2018-09-29T04:59:56.682Z,8.50
2018-09-29T05:02:28.761Z,8.50
2018-09-29T05:05:31.647Z,8.40
2018-09-29T05:08:03.653Z,8.40
2018-09-29T05:10:35.859Z,8.40
2018-09-29T05:13:08.170Z,8.40
2018-09-29T05:15:40.990Z,8.50
2018-09-29T05:18:12.974Z,8.50
2018-09-29T05:20:45.072Z,8.60
2018-09-29T05:23:17.764Z,8.70
2018-09-29T05:25:50.044Z,8.70
2018-09-29T05:28:22.313Z,8.70
2018-09-29T05:30:54.451Z,8.80
2018-09-29T05:33:26.411Z,8.90
2018-09-29T05:35:58.425Z,9.00
2018-09-29T05:38:30.490Z,9.10
2018-09-29T05:41:02.568Z,9.20
2018-09-29T05:43:34.799Z,9.30
2018-09-29T05:46:07.061Z,9.40
2018-09-29T05:48:39.487Z,9.60
2018-09-29T05:51:11.406Z,9.80
2018-09-29T05:53:43.546Z,9.90
2018-09-29T05:56:16.244Z,10.00
2018-09-29T05:58:48.225Z,10.20
2018-09-29T06:01:20.270Z,10.40
2018-09-29T06:03:52.225Z,10.50
2018-09-29T06:06:24.446Z,10.80
2018-09-29T06:08:56.431Z,11.00
2018-09-29T06:11:28.657Z,11.20
2018-09-29T06:14:00.875Z,11.40
2018-09-29T06:16:33.041Z,11.50
2018-09-29T06:19:05.924Z,11.60
2018-09-29T06:21:38.578Z,11.80
2018-09-29T06:24:10.803Z,11.90
2018-09-29T06:26:43.033Z,12.00
2018-09-29T06:29:15.372Z,12.20
2018-09-29T06:31:48.527Z,12.30
2018-09-29T06:34:23.056Z,12.60
2018-09-29T06:36:56.526Z,12.70
2018-09-29T06:39:28.723Z,12.90
2018-09-29T06:42:01.180Z,13.00
2018-09-29T06:44:33.910Z,13.10
2018-09-29T06:47:06.473Z,13.20
2018-09-29T06:49:38.950Z,13.30
2018-09-29T06:52:11.479Z,13.30
2018-09-29T06:54:44.152Z,13.40
2018-09-29T06:57:16.444Z,13.50
2018-09-29T06:59:48.944Z,13.60
2018-09-29T07:02:21.532Z,13.70
2018-09-29T07:04:53.938Z,13.80
2018-09-29T07:07:27.482Z,13.90
2018-09-29T07:10:00.423Z,13.90
2018-09-29T07:12:32.977Z,14.00
2018-09-29T07:15:05.504Z,14.20
2018-09-29T07:17:38.106Z,14.30
2018-09-29T07:20:11.224Z,14.50
2018-09-29T07:22:43.927Z,14.70
2018-09-29T07:25:15.989Z,14.90
2018-09-29T07:27:48.162Z,15.00
2018-09-29T07:30:20.664Z,15.20
2018-09-29T07:32:53.119Z,15.50
2018-09-29T07:35:25.347Z,15.70
2018-09-29T07:37:57.848Z,15.90
2018-09-29T07:40:30.054Z,16.10
2018-09-29T07:43:02.395Z,16.30
2018-09-29T07:45:34.518Z,16.40
2018-09-29T07:48:06.711Z,16.50
2018-09-29T07:50:38.574Z,16.70
2018-09-29T07:53:11.145Z,16.80
2018-09-29T07:55:43.447Z,16.90
2018-09-29T07:58:15.445Z,17.00
2018-09-29T08:00:47.526Z,17.10
2018-09-29T08:03:19.546Z,17.20
2018-09-29T08:05:51.797Z,17.30
2018-09-29T08:08:23.692Z,17.40
2018-09-29T08:10:55.919Z,17.40
2018-09-29T08:13:28.046Z,17.50
2018-09-29T08:16:00.058Z,17.50
2018-09-29T08:18:32.414Z,17.60
2018-09-29T08:21:04.669Z,17.80
2018-09-29T08:23:36.909Z,18.00
2018-09-29T08:26:09.013Z,18.40
2018-09-29T08:28:40.947Z,18.70
2018-09-29T08:31:12.830Z,19.00
2018-09-29T08:33:45.132Z,19.20
2018-09-29T08:36:17.190Z,19.30
2018-09-29T08:38:49.431Z,19.40
2018-09-29T08:41:23.206Z,19.50
2018-09-29T08:43:55.321Z,19.60
2018-09-29T08:46:27.689Z,19.60
2018-09-29T08:48:59.994Z,19.60
2018-09-29T08:51:32.014Z,19.70
2018-09-29T08:54:04.321Z,19.80
2018-09-29T08:56:36.515Z,20.00
2018-09-29T08:59:09.081Z,20.10
2018-09-29T09:01:41.467Z,20.20
2018-09-29T09:04:14.228Z,20.30
2018-09-29T09:06:46.684Z,20.30
2018-09-29T09:09:18.705Z,20.20
2018-09-29T09:11:51.174Z,20.20
2018-09-29T09:14:23.483Z,20.10
2018-09-29T09:16:55.718Z,20.00
2018-09-29T09:19:28.417Z,19.80
2018-09-29T09:22:01.140Z,19.80
2018-09-29T09:24:33.851Z,19.70
2018-09-29T09:27:05.770Z,19.60
2018-09-29T09:29:38.230Z,19.50
2018-09-29T09:32:10.195Z,19.30
2018-09-29T09:34:42.872Z,19.20
2018-09-29T09:37:15.269Z,19.20
2018-09-29T09:39:47.323Z,19.20
2018-09-29T09:42:19.476Z,19.10
2018-09-29T09:44:52.014Z,19.20
2018-09-29T09:47:24.669Z,19.20
2018-09-29T09:49:56.759Z,19.10
2018-09-29T09:52:28.860Z,19.10
2018-09-29T09:55:00.527Z,19.10
2018-09-29T09:57:32.757Z,19.20
2018-09-29T10:00:05.502Z,19.40
2018-09-29T10:02:47.195Z,19.60
2018-09-29T10:05:19.675Z,19.80
2018-09-29T10:07:51.914Z,20.00
2018-09-29T10:10:24.238Z,20.30
2018-09-29T10:12:56.848Z,20.40
2018-09-29T10:15:29.088Z,20.60
2018-09-29T10:18:01.268Z,20.70
2018-09-29T10:20:34.257Z,20.70
2018-09-29T10:23:06.621Z,20.80
2018-09-29T10:25:38.841Z,20.90
2018-09-29T10:28:10.646Z,20.90
2018-09-29T10:30:42.437Z,21.00
2018-09-29T10:33:14.616Z,21.10
2018-09-29T10:35:46.810Z,21.10
2018-09-29T10:38:19.109Z,21.00
2018-09-29T10:40:51.483Z,21.00
2018-09-29T10:43:23.577Z,21.00
2018-09-29T10:45:55.957Z,21.10
2018-09-29T10:48:27.701Z,21.10
2018-09-29T10:51:00.063Z,21.10
2018-09-29T10:53:32.627Z,21.20
2018-09-29T10:56:04.991Z,21.30
2018-09-29T10:58:37.574Z,21.50
2018-09-29T11:01:09.892Z,21.60
2018-09-29T11:03:41.982Z,21.70
2018-09-29T11:06:13.734Z,21.90
2018-09-29T11:08:46.051Z,22.00
2018-09-29T11:11:18.139Z,21.80
2018-09-29T11:13:50.778Z,21.80
2018-09-29T11:16:23.209Z,22.00
2018-09-29T11:18:55.589Z,22.30
2018-09-29T11:21:27.787Z,22.50
2018-09-29T11:23:59.478Z,22.70
2018-09-29T11:26:31.457Z,22.90
2018-09-29T11:29:03.892Z,23.00
2018-09-29T11:31:36.158Z,23.20
2018-09-29T11:34:08.337Z,23.40
2018-09-29T11:36:40.418Z,23.40
2018-09-29T11:39:13.497Z,23.30
2018-09-29T11:41:45.209Z,23.30
2018-09-29T11:44:17.154Z,23.40
2018-09-29T11:46:50.121Z,23.50
2018-09-29T11:49:22.611Z,23.60
2018-09-29T11:51:54.934Z,23.70
2018-09-29T11:54:27.234Z,23.80
2018-09-29T11:56:59.319Z,23.70
2018-09-29T11:59:31.276Z,23.40
2018-09-29T12:02:04.229Z,23.30
2018-09-29T12:04:36.565Z,23.10
2018-09-29T12:07:08.788Z,23.10
2018-09-29T12:09:41.119Z,23.00
2018-09-29T12:12:13.423Z,22.90
2018-09-29T12:14:46.016Z,22.90
2018-09-29T12:17:17.714Z,22.70
2018-09-29T12:19:49.803Z,22.70
2018-09-29T12:22:22.020Z,22.80
2018-09-29T12:24:55.034Z,22.90
2018-09-29T12:27:27.487Z,23.00
2018-09-29T12:29:59.936Z,23.10
2018-09-29T12:32:32.377Z,23.00
2018-09-29T12:35:06.821Z,23.00
2018-09-29T12:37:38.843Z,23.10
2018-09-29T12:40:10.970Z,23.00
2018-09-29T12:42:43.352Z,23.00
2018-09-29T12:45:15.635Z,23.00
2018-09-29T12:47:47.942Z,23.20
2018-09-29T12:50:20.198Z,23.30
2018-09-29T12:52:52.117Z,23.60
2018-09-29T12:55:24.601Z,23.70
2018-09-29T12:57:57.161Z,24.00
2018-09-29T13:00:29.586Z,24.00
2018-09-29T13:03:01.840Z,23.80
2018-09-29T13:05:34.098Z,23.70
2018-09-29T13:08:13.140Z,23.60
2018-09-29T13:10:51.331Z,23.50
2018-09-29T13:13:24.220Z,23.50
2018-09-29T13:15:56.736Z,23.30
2018-09-29T13:18:29.389Z,23.40
2018-09-29T13:21:01.701Z,23.50
2018-09-29T13:23:35.035Z,23.60
2018-09-29T13:26:07.427Z,23.30
2018-09-29T13:28:39.868Z,23.30
2018-09-29T13:31:12.287Z,23.20
2018-09-29T13:33:45.212Z,23.00
2018-09-29T13:36:19.105Z,22.60
2018-09-29T13:38:51.405Z,22.40
2018-09-29T13:41:23.626Z,22.50
2018-09-29T13:43:56.615Z,22.40
2018-09-29T13:46:28.733Z,22.20
2018-09-29T13:49:00.585Z,22.00
2018-09-29T13:51:33.405Z,22.00
2018-09-29T13:54:05.924Z,22.00
2018-09-29T13:56:38.885Z,22.00
2018-09-29T13:59:11.263Z,21.90
2018-09-29T14:01:43.584Z,21.80
2018-09-29T14:04:15.901Z,21.90
2018-09-29T14:06:48.588Z,21.90
2018-09-29T14:09:20.487Z,21.90
2018-09-29T14:11:52.717Z,21.90
2018-09-29T14:14:24.683Z,22.00
2018-09-29T14:16:57.208Z,22.00
2018-09-29T14:19:29.290Z,22.00
2018-09-29T14:22:01.701Z,22.00
2018-09-29T14:24:33.729Z,22.10
2018-09-29T14:27:05.358Z,22.20
2018-09-29T14:29:38.263Z,22.20
2018-09-29T14:32:10.702Z,22.20
2018-09-29T14:34:43.215Z,22.20
2018-09-29T14:37:15.655Z,22.30
2018-09-29T14:39:48.290Z,22.30
2018-09-29T14:42:20.724Z,22.20
2018-09-29T14:44:52.517Z,22.20
2018-09-29T14:47:24.951Z,22.10
2018-09-29T14:49:57.540Z,22.00
2018-09-29T14:52:30.057Z,21.90
2018-09-29T14:55:02.343Z,21.70
2018-09-29T14:57:34.583Z,21.50
2018-09-29T15:00:07.155Z,21.40
2018-09-29T15:02:39.008Z,21.30
2018-09-29T15:05:11.752Z,21.10
2018-09-29T15:07:44.356Z,21.00
2018-09-29T15:10:16.785Z,20.90
2018-09-29T15:12:49.110Z,20.80
2018-09-29T15:15:21.315Z,20.60
2018-09-29T15:17:53.834Z,20.40
2018-09-29T15:20:26.303Z,20.30
2018-09-29T15:22:58.622Z,20.00
2018-09-29T15:25:31.162Z,19.80
2018-09-29T15:28:03.265Z,19.60
2018-09-29T15:30:35.784Z,19.40
2018-09-29T15:33:07.952Z,19.20
2018-09-29T15:35:40.610Z,19.00
2018-09-29T15:38:12.369Z,18.80
2018-09-29T15:40:44.711Z,18.60
2018-09-29T15:43:16.880Z,18.50
2018-09-29T15:45:48.946Z,18.40
2018-09-29T15:48:21.159Z,18.20
2018-09-29T15:50:53.701Z,18.10
2018-09-29T15:53:26.248Z,17.90
2018-09-29T15:55:58.065Z,17.70
2018-09-29T15:58:30.239Z,17.60
2018-09-29T16:01:02.819Z,17.50
2018-09-29T16:03:34.856Z,17.30
2018-09-29T16:06:06.836Z,17.20
2018-09-29T16:08:39.360Z,17.20
2018-09-29T16:11:12.326Z,17.10
2018-09-29T16:13:43.989Z,17.00
2018-09-29T16:16:16.356Z,16.90
2018-09-29T16:18:48.669Z,16.80
2018-09-29T16:21:21.841Z,16.70
2018-09-29T16:23:54.164Z,16.50
2018-09-29T16:26:26.555Z,16.40
2018-09-29T16:28:59.224Z,16.40
2018-09-29T16:31:31.523Z,16.30
2018-09-29T16:34:04.717Z,16.20
2018-09-29T16:36:37.019Z,16.20
2018-09-29T16:39:14.113Z,16.10
2018-09-29T16:41:46.056Z,16.10
2018-09-29T16:44:17.730Z,16.00
2018-09-29T16:46:50.882Z,15.90
2018-09-29T16:49:23.553Z,15.80
2018-09-29T16:51:55.848Z,15.70
2018-09-29T16:54:27.969Z,15.70
2018-09-29T16:57:00.650Z,15.60
2018-09-29T16:59:33.264Z,15.50
2018-09-29T17:02:05.977Z,15.50
2018-09-29T17:04:38.319Z,15.40
2018-09-29T17:07:10.709Z,15.30
2018-09-29T17:09:43.142Z,15.30
2018-09-29T17:12:15.110Z,15.20
2018-09-29T17:14:47.530Z,15.10
2018-09-29T17:17:19.759Z,15.00
2018-09-29T17:19:51.428Z,14.90
2018-09-29T17:22:23.911Z,14.90
2018-09-29T17:24:56.469Z,14.80
2018-09-29T17:27:30.169Z,14.80
2018-09-29T17:30:02.939Z,14.70
2018-09-29T17:32:35.525Z,14.60
2018-09-29T17:35:07.855Z,14.60
2018-09-29T17:37:39.778Z,14.60
2018-09-29T17:40:12.475Z,14.60
2018-09-29T17:42:44.400Z,14.50
2018-09-29T17:45:16.681Z,14.50
2018-09-29T17:47:49.101Z,14.50
2018-09-29T17:50:21.534Z,14.50
2018-09-29T17:52:53.312Z,14.50
2018-09-29T17:55:25.809Z,14.40
2018-09-29T17:57:57.884Z,14.40
2018-09-29T18:00:30.763Z,14.30
2018-09-29T18:03:03.298Z,14.30
2018-09-29T18:05:35.957Z,14.30
2018-09-29T18:08:08.358Z,14.30
2018-09-29T18:10:41.014Z,14.30
2018-09-29T18:13:13.508Z,14.20
2018-09-29T18:15:46.336Z,14.20
2018-09-29T18:18:19.706Z,14.10
2018-09-29T18:20:52.550Z,14.20
2018-09-29T18:23:25.184Z,14.10
2018-09-29T18:25:56.904Z,14.10
2018-09-29T18:28:29.499Z,14.10
2018-09-29T18:31:01.674Z,14.00
2018-09-29T18:33:33.872Z,14.00
2018-09-29T18:36:06.346Z,13.90
2018-09-29T18:38:39.146Z,13.90
2018-09-29T18:41:11.346Z,13.80
2018-09-29T18:43:43.903Z,13.80
2018-09-29T18:46:16.203Z,13.80
2018-09-29T18:48:48.356Z,13.70
2018-09-29T18:51:21.090Z,13.60
2018-09-29T18:53:53.441Z,13.60
2018-09-29T18:56:25.763Z,13.60
2018-09-29T18:58:58.215Z,13.50
2018-09-29T19:01:30.692Z,13.40
2018-09-29T19:04:02.971Z,13.40
2018-09-29T19:06:35.836Z,13.30
2018-09-29T19:09:12.152Z,13.20
2018-09-29T19:11:45.017Z,13.20
2018-09-29T19:14:17.455Z,13.10
2018-09-29T19:16:49.669Z,13.10
2018-09-29T19:19:21.984Z,13.00
2018-09-29T19:21:54.185Z,13.00
2018-09-29T19:24:26.632Z,12.90
2018-09-29T19:26:58.861Z,12.90
2018-09-29T19:29:31.136Z,12.80
2018-09-29T19:32:03.586Z,12.80
2018-09-29T19:34:36.014Z,12.70
2018-09-29T19:37:08.180Z,12.70
2018-09-29T19:39:40.823Z,12.70
2018-09-29T19:42:13.105Z,12.60
2018-09-29T19:44:45.307Z,12.60
2018-09-29T19:47:17.696Z,12.60
2018-09-29T19:49:49.924Z,12.60
2018-09-29T19:52:22.831Z,12.60
2018-09-29T19:54:54.902Z,12.60
2018-09-29T19:57:27.414Z,12.60
2018-09-29T19:59:59.502Z,12.50
2018-09-29T20:02:31.457Z,12.50
2018-09-29T20:05:04.374Z,12.50
2018-09-29T20:07:37.503Z,12.50
2018-09-29T20:10:09.874Z,12.40
2018-09-29T20:12:42.057Z,12.40
2018-09-29T20:15:14.434Z,12.40
2018-09-29T20:17:46.772Z,12.40
2018-09-29T20:20:19.051Z,12.30
2018-09-29T20:22:51.325Z,12.30
2018-09-29T20:25:23.796Z,12.30
2018-09-29T20:27:55.936Z,12.40
2018-09-29T20:30:30.027Z,12.40
2018-09-29T20:33:02.288Z,12.30
2018-09-29T20:35:34.436Z,12.30
2018-09-29T20:38:06.961Z,12.40
2018-09-29T20:40:39.080Z,12.30
2018-09-29T20:43:11.462Z,12.30
2018-09-29T20:45:43.478Z,12.30
2018-09-29T20:48:16.493Z,12.30
2018-09-29T20:50:48.883Z,12.30
2018-09-29T20:53:22.016Z,12.30
2018-09-29T20:55:54.416Z,12.20
2018-09-29T20:58:26.646Z,12.20
2018-09-29T21:00:58.822Z,12.20
2018-09-29T21:03:31.019Z,12.20
2018-09-29T21:06:03.699Z,12.20
2018-09-29T21:08:36.306Z,12.20
2018-09-29T21:11:08.602Z,12.20
2018-09-29T21:13:41.162Z,12.20
2018-09-29T21:16:13.605Z,12.10
2018-09-29T21:18:45.641Z,12.00
2018-09-29T21:21:17.814Z,11.90
2018-09-29T21:23:50.001Z,11.80
2018-09-29T21:26:22.534Z,11.70
2018-09-29T21:28:55.196Z,11.60
2018-09-29T21:31:27.799Z,11.50
2018-09-29T21:34:00.399Z,11.40
2018-09-29T21:36:32.956Z,11.40
2018-09-29T21:39:06.790Z,11.30
2018-09-29T21:41:38.834Z,11.30
2018-09-29T21:44:10.869Z,11.20
2018-09-29T21:46:42.916Z,11.10
2018-09-29T21:49:14.983Z,11.00
2018-09-29T21:51:47.585Z,11.00
2018-09-29T21:54:20.212Z,10.80
2018-09-29T21:56:52.499Z,10.80
2018-09-29T21:59:24.419Z,10.70
2018-09-29T22:01:56.610Z,10.70
2018-09-29T22:04:29.070Z,10.70
2018-09-29T22:07:01.268Z,10.60
2018-09-29T22:09:33.435Z,10.60
2018-09-29T22:12:05.735Z,10.60
2018-09-29T22:14:38.230Z,10.60
2018-09-29T22:17:10.238Z,10.60
2018-09-29T22:19:42.284Z,10.70
2018-09-29T22:22:15.726Z,10.70
2018-09-29T22:24:47.638Z,10.70
2018-09-29T22:27:19.741Z,10.60
2018-09-29T22:29:51.990Z,10.60
2018-09-29T22:32:24.105Z,10.50
2018-09-29T22:34:56.346Z,10.50
2018-09-29T22:37:28.316Z,10.40
2018-09-29T22:40:01.039Z,10.40
2018-09-29T22:42:33.275Z,10.50
2018-09-29T22:45:05.289Z,10.40
2018-09-29T22:47:37.551Z,10.40
2018-09-29T22:50:09.825Z,10.40
2018-09-29T22:52:42.305Z,10.40
2018-09-29T22:55:14.838Z,10.40
2018-09-29T22:57:46.989Z,10.30
2018-09-29T23:00:18.954Z,10.40
2018-09-29T23:02:51.387Z,10.50
2018-09-29T23:05:23.760Z,10.50
2018-09-29T23:07:56.396Z,10.40
2018-09-29T23:10:28.600Z,10.40
2018-09-29T23:13:00.688Z,10.50
2018-09-29T23:15:33.029Z,10.40
2018-09-29T23:18:05.278Z,10.40
2018-09-29T23:20:37.698Z,10.50
2018-09-29T23:23:09.965Z,10.40
2018-09-29T23:25:42.104Z,10.50
2018-09-29T23:28:14.501Z,10.50
2018-09-29T23:30:47.121Z,10.60
2018-09-29T23:33:19.063Z,10.70
2018-09-29T23:35:51.542Z,10.70
2018-09-29T23:38:23.615Z,10.60
2018-09-29T23:40:55.700Z,10.70
2018-09-29T23:43:27.875Z,10.70
2018-09-29T23:45:59.680Z,10.80
2018-09-29T23:48:31.615Z,10.80
2018-09-29T23:51:03.850Z,10.90
2018-09-29T23:53:35.689Z,10.90
2018-09-29T23:56:08.818Z,11.00
2018-09-29T23:58:41.214Z,11.00
